Time;durP1;ratioP1;P1;durP2;ratioP2;P2;SDS_P1;SDS_P2;PMS_P1;PMS_P2;Temp;Humidity;BMP_temperature;BMP_pressure;BME280_temperature;BME280_humidity;BME280_pressure;Samples;Min_cycle;Max_cycle;Signal;HPM_P1;HPM_P2
2023/12/05 00:02:11;;;;;;;25.17;15.65;;;0.10;99.90;;;;;;5034128;28;20256;-62
2023/12/05 00:04:38;;;;;;;19.20;14.40;;;0.10;99.90;;;;;;5033983;28;20549;-63
2023/12/05 00:07:06;;;;;;;19.70;13.30;;;0.10;99.90;;;;;;5034521;28;20244;-59
2023/12/05 00:09:33;;;;;;;22.95;14.60;;;0.10;99.90;;;;;;5035882;28;20206;-62
2023/12/05 00:11:59;;;;;;;21.20;13.65;;;0.10;99.90;;;;;;5034896;28;20704;-63
2023/12/05 00:14:26;;;;;;;22.27;13.93;;;0.10;99.90;;;;;;5034479;28;20202;-62
2023/12/05 00:16:53;;;;;;;20.70;14.70;;;0.10;99.90;;;;;;5034435;28;20574;-63
2023/12/05 00:19:20;;;;;;;19.02;14.30;;;0.10;99.90;;;;;;5034360;28;20590;-62
2023/12/05 00:21:46;;;;;;;20.75;14.13;;;0.10;99.90;;;;;;5034036;28;20295;-62
2023/12/05 00:24:14;;;;;;;21.67;13.38;;;0.00;99.90;;;;;;5034886;28;20595;-62
2023/12/05 00:26:41;;;;;;;21.65;14.43;;;0.10;99.90;;;;;;5034625;28;20212;-62
2023/12/05 00:29:08;;;;;;;26.75;15.15;;;0.00;99.90;;;;;;5037881;28;20212;-63
2023/12/05 00:31:35;;;;;;;17.63;13.48;;;0.10;99.90;;;;;;5038372;28;20222;-62
2023/12/05 00:34:02;;;;;;;21.15;14.27;;;0.10;99.90;;;;;;5038566;28;20204;-63
2023/12/05 00:36:28;;;;;;;23.73;15.50;;;0.10;99.90;;;;;;5039038;28;20208;-62
2023/12/05 00:38:55;;;;;;;25.25;16.33;;;0.10;99.90;;;;;;5039027;28;20202;-62
2023/12/05 00:41:24;;;;;;;19.65;14.35;;;0.10;99.90;;;;;;5039272;28;20229;-62
2023/12/05 00:43:52;;;;;;;23.75;15.35;;;0.10;99.90;;;;;;5039156;28;20233;-62
2023/12/05 00:46:21;;;;;;;20.95;15.20;;;0.10;99.90;;;;;;5040425;28;20676;-62
2023/12/05 00:48:47;;;;;;;24.33;15.60;;;0.10;99.90;;;;;;5042174;28;20198;-64
2023/12/05 00:51:14;;;;;;;19.95;14.07;;;0.10;99.90;;;;;;5041492;28;20594;-62
2023/12/05 00:53:41;;;;;;;23.60;15.10;;;0.10;99.90;;;;;;5041443;28;20210;-62
2023/12/05 00:56:11;;;;;;;21.05;14.95;;;0.10;99.90;;;;;;5043857;28;20672;-62
2023/12/05 00:58:39;;;;;;;23.48;15.82;;;0.10;99.90;;;;;;5045353;28;20226;-62
2023/12/05 01:01:06;;;;;;;24.13;16.10;;;0.10;99.90;;;;;;5043267;28;20234;-62
2023/12/05 01:03:32;;;;;;;26.80;17.15;;;0.10;99.90;;;;;;5041554;28;20234;-62
2023/12/05 01:05:59;;;;;;;25.98;17.33;;;0.10;99.90;;;;;;5039845;28;20204;-62
2023/12/05 01:08:26;;;;;;;24.40;15.85;;;0.10;99.90;;;;;;5039431;28;20198;-62
2023/12/05 01:10:53;;;;;;;21.45;15.98;;;0.10;99.90;;;;;;5038380;28;20206;-61
2023/12/05 01:13:20;;;;;;;25.88;15.45;;;0.10;99.90;;;;;;5037420;28;20198;-61
2023/12/05 01:15:48;;;;;;;23.52;16.83;;;0.10;99.90;;;;;;5037579;28;20202;-62
2023/12/05 01:18:15;;;;;;;27.55;16.45;;;0.10;99.90;;;;;;5037177;28;20301;-61
2023/12/05 01:20:42;;;;;;;21.42;15.35;;;0.10;99.90;;;;;;5036863;28;20202;-62
2023/12/05 01:23:08;;;;;;;22.67;15.35;;;0.10;99.90;;;;;;5036395;28;20213;-63
2023/12/05 01:25:35;;;;;;;26.75;16.20;;;0.10;99.90;;;;;;5036950;28;20213;-63
2023/12/05 01:28:02;;;;;;;23.35;16.05;;;0.10;99.90;;;;;;5037187;28;20248;-62
2023/12/05 01:30:29;;;;;;;25.55;15.60;;;0.00;99.90;;;;;;5036915;28;20210;-62
2023/12/05 01:32:57;;;;;;;27.13;17.30;;;0.00;99.90;;;;;;5037687;28;20224;-63
2023/12/05 01:35:24;;;;;;;30.05;17.48;;;0.10;99.90;;;;;;5037343;28;20675;-63
2023/12/05 01:37:51;;;;;;;28.85;16.77;;;0.10;99.90;;;;;;5036345;28;20222;-62
2023/12/05 01:40:18;;;;;;;24.15;16.65;;;0.10;99.90;;;;;;5036115;28;20206;-63
2023/12/05 01:42:45;;;;;;;24.90;17.42;;;0.00;99.90;;;;;;5036589;28;20222;-63
2023/12/05 01:45:12;;;;;;;29.15;17.83;;;0.00;99.90;;;;;;5036570;28;20206;-63
2023/12/05 01:47:41;;;;;;;24.45;16.10;;;0.00;99.90;;;;;;5036457;28;20241;-62
2023/12/05 01:50:11;;;;;;;29.48;16.98;;;0.10;99.90;;;;;;5036452;28;20202;-62
2023/12/05 01:52:39;;;;;;;22.67;16.38;;;0.00;99.90;;;;;;5036304;28;20228;-63
2023/12/05 01:55:08;;;;;;;29.63;17.60;;;0.10;99.90;;;;;;5036262;28;20613;-62
2023/12/05 01:57:35;;;;;;;27.55;16.38;;;0.10;99.90;;;;;;5035732;28;20215;-63
2023/12/05 02:00:04;;;;;;;31.67;18.27;;;0.10;99.90;;;;;;5035733;28;20261;-62
2023/12/05 02:02:31;;;;;;;23.38;15.48;;;0.10;99.90;;;;;;5035526;28;20292;-63
2023/12/05 02:04:58;;;;;;;26.13;15.52;;;0.10;99.90;;;;;;5036044;28;20205;-63
2023/12/05 02:07:26;;;;;;;27.50;17.98;;;0.10;99.90;;;;;;5035777;28;20198;-63
2023/12/05 02:09:53;;;;;;;26.95;17.17;;;0.10;99.90;;;;;;5035998;28;20297;-62
2023/12/05 02:12:19;;;;;;;24.10;16.70;;;0.10;99.90;;;;;;5035793;28;20226;-63
2023/12/05 02:14:46;;;;;;;24.60;17.45;;;0.10;99.90;;;;;;5035513;28;20203;-63
2023/12/05 02:17:18;;;;;;;30.55;17.38;;;0.10;99.90;;;;;;5035457;28;20202;-62
2023/12/05 02:19:58;;;;;;;26.27;16.38;;;0.10;99.90;;;;;;5035446;28;20565;-63
2023/12/05 02:23:08;;;;;;;25.40;17.48;;;0.10;99.90;;;;;;5035398;28;20226;-62
2023/12/05 02:25:49;;;;;;;28.73;16.55;;;0.10;99.90;;;;;;5036258;28;20269;-63
2023/12/05 02:28:19;;;;;;;25.60;16.73;;;0.10;99.90;;;;;;5036866;28;20179;-62
2023/12/05 02:30:46;;;;;;;26.50;17.13;;;0.10;99.90;;;;;;5038668;28;20202;-62
2023/12/05 02:33:13;;;;;;;26.27;16.95;;;0.10;99.90;;;;;;5046988;28;20205;-62
2023/12/05 02:35:40;;;;;;;26.63;16.55;;;0.10;99.90;;;;;;5048812;28;20722;-63
2023/12/05 02:38:13;;;;;;;25.00;16.73;;;0.10;99.90;;;;;;5046459;28;20222;-63
2023/12/05 02:40:47;;;;;;;28.75;16.90;;;0.10;99.90;;;;;;5045350;28;20205;-62
2023/12/05 02:43:20;;;;;;;25.05;16.92;;;0.10;99.90;;;;;;5043848;28;20187;-63
2023/12/05 02:45:50;;;;;;;27.08;16.85;;;0.10;99.90;;;;;;5046080;28;20250;-61
2023/12/05 02:48:17;;;;;;;26.13;19.08;;;0.10;99.90;;;;;;5043704;28;20199;-63
2023/12/05 02:50:45;;;;;;;26.38;17.05;;;0.10;99.90;;;;;;5043554;28;20668;-63
2023/12/05 02:53:12;;;;;;;25.50;16.45;;;0.10;99.90;;;;;;5036178;28;20282;-62
2023/12/05 02:55:40;;;;;;;30.48;18.95;;;0.10;99.90;;;;;;5035982;28;20714;-63
2023/12/05 02:58:07;;;;;;;27.80;17.60;;;0.10;99.90;;;;;;5036454;28;20218;-63
2023/12/05 03:00:35;;;;;;;28.48;18.63;;;0.10;99.90;;;;;;5035436;28;20206;-62
2023/12/05 03:03:02;;;;;;;23.83;16.30;;;0.10;99.90;;;;;;5035489;28;20218;-61
2023/12/05 03:05:28;;;;;;;28.10;17.55;;;0.10;99.90;;;;;;5035172;28;20206;-62
2023/12/05 03:07:55;;;;;;;27.42;17.00;;;0.10;99.90;;;;;;5035142;28;20207;-62
2023/12/05 03:10:22;;;;;;;23.50;15.55;;;0.10;99.90;;;;;;5034559;28;20203;-62
2023/12/05 03:12:49;;;;;;;25.65;17.10;;;0.10;99.90;;;;;;5034758;28;20244;-62
2023/12/05 03:15:15;;;;;;;26.35;16.65;;;0.10;99.90;;;;;;5034467;28;20209;-62
2023/12/05 03:17:43;;;;;;;24.55;16.90;;;0.10;99.90;;;;;;5033998;28;20222;-63
2023/12/05 03:20:11;;;;;;;23.75;17.45;;;0.10;99.90;;;;;;5034060;28;20787;-63
2023/12/05 03:22:38;;;;;;;29.52;17.50;;;0.10;99.90;;;;;;5034292;28;20226;-62
2023/12/05 03:25:06;;;;;;;26.77;17.50;;;0.10;99.90;;;;;;5034512;28;20301;-63
2023/12/05 03:27:33;;;;;;;33.58;18.85;;;0.10;99.90;;;;;;5034238;28;20206;-63
2023/12/05 03:30:00;;;;;;;26.67;18.15;;;0.20;99.90;;;;;;5033756;28;20233;-62
2023/12/05 03:32:26;;;;;;;29.35;18.17;;;0.10;99.90;;;;;;5034140;28;20222;-62
2023/12/05 03:34:55;;;;;;;33.33;18.10;;;0.20;99.90;;;;;;5033857;28;20206;-63
2023/12/05 03:37:21;;;;;;;26.88;16.95;;;0.10;99.90;;;;;;5033763;28;20757;-63
2023/12/05 03:39:48;;;;;;;24.20;16.67;;;0.10;99.90;;;;;;5033784;28;20225;-62
2023/12/05 03:42:15;;;;;;;32.72;19.25;;;0.10;99.90;;;;;;5033803;28;20222;-62
2023/12/05 03:44:42;;;;;;;25.10;17.85;;;0.10;99.90;;;;;;5033783;28;20209;-63
2023/12/05 03:47:08;;;;;;;30.27;17.92;;;0.10;99.90;;;;;;5033328;28;20676;-62
2023/12/05 03:49:35;;;;;;;23.75;17.33;;;0.10;99.90;;;;;;5034069;28;20198;-63
2023/12/05 03:52:04;;;;;;;25.38;16.38;;;0.10;99.90;;;;;;5033650;28;20226;-62
2023/12/05 03:54:31;;;;;;;25.15;15.93;;;0.10;99.90;;;;;;5033857;28;20198;-62
2023/12/05 03:56:58;;;;;;;26.90;17.75;;;0.10;99.90;;;;;;5034278;28;20203;-62
2023/12/05 03:59:24;;;;;;;28.27;19.50;;;0.10;99.90;;;;;;5034257;28;20228;-63
2023/12/05 04:01:51;;;;;;;30.70;18.95;;;0.10;99.90;;;;;;5033886;28;20230;-62
2023/12/05 04:04:18;;;;;;;26.15;18.00;;;0.10;99.90;;;;;;5033894;28;20202;-63
2023/12/05 04:06:45;;;;;;;27.48;18.42;;;0.10;99.90;;;;;;5033783;28;20576;-63
2023/12/05 04:12:40;;;;;;;26.60;19.27;;;0.10;99.90;;;;;;5102163;27;1530535;-63
2023/12/05 04:15:08;;;;;;;26.85;17.92;;;0.10;99.90;;;;;;5153433;27;20198;-62
2023/12/05 04:17:36;;;;;;;29.13;18.95;;;0.10;99.90;;;;;;5152718;27;20650;-62
2023/12/05 04:20:05;;;;;;;28.58;18.38;;;0.10;99.90;;;;;;5152841;27;20212;-62
2023/12/05 04:22:32;;;;;;;27.42;18.42;;;0.10;99.90;;;;;;5152882;27;20265;-62
2023/12/05 04:24:59;;;;;;;25.70;18.00;;;0.10;99.90;;;;;;5153203;27;20194;-62
2023/12/05 04:27:25;;;;;;;27.55;17.42;;;0.10;99.90;;;;;;5153291;27;20202;-63
2023/12/05 04:29:54;;;;;;;27.27;17.90;;;0.10;99.90;;;;;;5153562;27;20214;-62
2023/12/05 04:32:20;;;;;;;25.42;17.17;;;0.10;99.90;;;;;;5152736;27;20226;-62
2023/12/05 04:34:47;;;;;;;27.35;18.38;;;0.10;99.90;;;;;;5152052;27;20202;-63
2023/12/05 04:37:14;;;;;;;22.85;16.92;;;0.10;99.90;;;;;;5153341;27;20210;-62
2023/12/05 04:39:41;;;;;;;26.23;18.35;;;0.10;99.90;;;;;;5152180;27;20194;-63
2023/12/05 04:42:08;;;;;;;29.23;18.33;;;0.10;99.90;;;;;;5152409;27;20267;-63
2023/12/05 04:44:35;;;;;;;28.92;18.60;;;0.10;99.90;;;;;;5152360;27;20660;-62
2023/12/05 04:47:03;;;;;;;31.67;18.88;;;0.10;99.90;;;;;;5152104;27;20247;-62
2023/12/05 04:49:30;;;;;;;28.48;17.92;;;0.10;99.90;;;;;;5152136;27;20198;-62
2023/12/05 04:51:57;;;;;;;26.38;18.38;;;0.10;99.90;;;;;;5152287;27;20222;-63
2023/12/05 04:54:24;;;;;;;32.47;19.83;;;0.10;99.90;;;;;;5152439;27;20198;-62
2023/12/05 04:56:51;;;;;;;28.95;18.95;;;0.10;99.90;;;;;;5152238;27;20195;-62
2023/12/05 04:59:18;;;;;;;33.30;17.70;;;0.10;99.90;;;;;;5151749;27;20194;-62
2023/12/05 05:01:44;;;;;;;28.50;17.10;;;0.10;99.90;;;;;;5156672;22;20259;-60
2023/12/05 05:04:12;;;;;;;28.58;18.15;;;0.10;99.90;;;;;;5111026;28;20203;-60
2023/12/05 05:06:39;;;;;;;29.70;17.13;;;0.10;99.90;;;;;;5111603;28;20211;-60
2023/12/05 05:09:07;;;;;;;27.48;16.88;;;0.20;99.90;;;;;;5110713;28;20666;-61
2023/12/05 05:11:34;;;;;;;26.58;18.00;;;0.10;99.90;;;;;;5111006;28;20231;-60
2023/12/05 05:14:01;;;;;;;25.98;18.77;;;0.20;99.90;;;;;;5113406;28;20200;-60
2023/12/05 05:16:27;;;;;;;27.48;18.10;;;0.10;99.90;;;;;;5110080;28;20283;-60
2023/12/05 05:18:54;;;;;;;28.35;18.27;;;0.10;99.90;;;;;;5110967;28;20219;-61
2023/12/05 05:21:22;;;;;;;28.70;16.83;;;0.10;99.90;;;;;;5113717;28;20211;-60
2023/12/05 05:23:49;;;;;;;27.25;17.20;;;0.10;99.90;;;;;;5098532;28;20693;-60
2023/12/05 05:26:16;;;;;;;25.05;16.58;;;0.20;99.90;;;;;;5098496;28;20204;-61
2023/12/05 05:28:43;;;;;;;29.38;17.80;;;0.10;99.90;;;;;;5097198;28;20211;-61
2023/12/05 05:31:09;;;;;;;26.80;17.27;;;0.10;99.90;;;;;;5096758;28;20224;-60
2023/12/05 05:33:36;;;;;;;26.58;17.20;;;0.10;99.90;;;;;;5096423;28;20313;-60
2023/12/05 05:36:03;;;;;;;29.20;17.15;;;0.10;99.90;;;;;;5096544;28;20196;-61
2023/12/05 05:38:31;;;;;;;24.33;17.15;;;0.20;99.90;;;;;;5097048;28;20204;-61
2023/12/05 05:41:04;;;;;;;27.95;17.17;;;0.10;99.90;;;;;;5097064;28;20205;-61
2023/12/05 05:43:31;;;;;;;28.60;17.75;;;0.10;99.90;;;;;;5096636;28;20665;-61
2023/12/05 05:45:58;;;;;;;28.77;16.70;;;0.20;99.90;;;;;;5096731;28;20227;-62
2023/12/05 05:48:25;;;;;;;26.35;17.60;;;0.20;99.90;;;;;;5096295;28;20202;-62
2023/12/05 05:50:51;;;;;;;27.83;17.73;;;0.10;99.90;;;;;;5095649;28;20208;-61
2023/12/05 05:53:18;;;;;;;27.83;18.00;;;0.20;99.90;;;;;;5095483;28;20201;-61
2023/12/05 05:55:46;;;;;;;24.73;16.35;;;0.20;99.90;;;;;;5096044;28;20200;-62
2023/12/05 05:58:13;;;;;;;28.92;16.90;;;0.20;99.90;;;;;;5095312;28;20205;-61
2023/12/05 06:00:40;;;;;;;26.08;16.48;;;0.10;99.90;;;;;;5095737;28;20564;-60
2023/12/05 06:03:07;;;;;;;29.48;19.20;;;0.10;99.90;;;;;;5095746;28;20228;-61
2023/12/05 06:05:34;;;;;;;31.85;17.45;;;0.10;99.90;;;;;;5096507;28;20200;-61
2023/12/05 06:08:00;;;;;;;37.75;18.23;;;0.10;99.90;;;;;;5096165;28;20201;-60
2023/12/05 06:10:28;;;;;;;29.23;18.08;;;0.10;99.90;;;;;;5096181;28;20227;-60
2023/12/05 06:12:56;;;;;;;29.58;19.83;;;0.10;99.90;;;;;;5096170;28;20224;-60
2023/12/05 06:15:23;;;;;;;29.35;18.48;;;0.10;99.90;;;;;;5095676;28;20204;-60
2023/12/05 06:17:50;;;;;;;32.95;19.55;;;0.10;99.90;;;;;;5096550;28;20196;-62
2023/12/05 06:20:17;;;;;;;31.40;19.52;;;0.10;99.90;;;;;;5095592;28;20295;-61
2023/12/05 06:22:43;;;;;;;30.63;18.20;;;0.10;99.90;;;;;;5095723;28;20247;-61
2023/12/05 06:25:10;;;;;;;24.83;16.55;;;0.10;99.90;;;;;;5095663;28;20634;-61
2023/12/05 06:27:37;;;;;;;34.50;19.45;;;0.10;99.90;;;;;;5095183;28;20240;-61
2023/12/05 06:30:07;;;;;;;26.85;16.77;;;0.10;99.90;;;;;;5095116;28;20578;-60
2023/12/05 06:32:34;;;;;;;29.75;19.30;;;0.10;99.90;;;;;;5094867;28;20285;-60
2023/12/05 06:35:00;;;;;;;28.15;18.35;;;0.10;99.90;;;;;;5093998;28;20608;-60
2023/12/05 06:37:27;;;;;;;31.50;19.52;;;0.10;99.90;;;;;;5094644;28;20222;-61
2023/12/05 06:39:54;;;;;;;30.67;19.65;;;0.10;99.90;;;;;;5094709;28;20206;-61
2023/12/05 06:42:21;;;;;;;27.25;19.05;;;0.10;99.90;;;;;;5094533;28;20216;-61
2023/12/05 06:44:48;;;;;;;29.85;17.92;;;0.20;99.90;;;;;;5095199;28;20200;-60
2023/12/05 06:47:16;;;;;;;32.25;19.60;;;0.20;99.90;;;;;;5094879;28;20578;-61
2023/12/05 06:49:43;;;;;;;28.48;19.30;;;0.20;99.90;;;;;;5095078;28;20211;-64
2023/12/05 06:52:11;;;;;;;31.27;18.30;;;0.20;99.90;;;;;;5095138;28;20261;-62
2023/12/05 06:54:38;;;;;;;35.90;21.50;;;0.20;99.90;;;;;;5094584;28;20204;-61
2023/12/05 06:57:05;;;;;;;30.05;18.90;;;0.20;99.90;;;;;;5094948;28;20200;-61
2023/12/05 06:59:32;;;;;;;30.98;20.02;;;0.20;99.90;;;;;;5094761;28;20207;-59
2023/12/05 07:01:59;;;;;;;31.67;18.65;;;0.20;99.90;;;;;;5095053;28;20290;-61
2023/12/05 07:04:28;;;;;;;32.03;19.92;;;0.20;99.90;;;;;;5095651;28;20247;-61
2023/12/05 07:06:55;;;;;;;30.10;19.85;;;0.20;99.90;;;;;;5095007;28;20212;-62
2023/12/05 07:09:21;;;;;;;33.45;21.20;;;0.20;99.90;;;;;;5095043;28;20573;-60
2023/12/05 07:11:48;;;;;;;35.35;19.75;;;0.20;99.90;;;;;;5094225;28;20224;-63
2023/12/05 07:14:15;;;;;;;29.50;20.67;;;0.20;99.90;;;;;;5097694;28;20196;-61
2023/12/05 07:16:42;;;;;;;28.65;18.45;;;0.20;99.90;;;;;;5094074;28;20569;-61
2023/12/05 07:19:09;;;;;;;32.17;20.05;;;0.20;99.90;;;;;;5093519;28;20615;-62
2023/12/05 07:21:37;;;;;;;34.50;21.80;;;0.20;99.90;;;;;;5093569;28;20219;-61
2023/12/05 07:24:04;;;;;;;31.50;21.45;;;0.20;99.90;;;;;;5093689;28;20203;-61
2023/12/05 07:26:31;;;;;;;38.30;21.45;;;0.20;99.90;;;;;;5094288;28;20200;-61
2023/12/05 07:28:58;;;;;;;31.23;19.60;;;0.20;99.90;;;;;;5094328;28;20662;-60
2023/12/05 07:31:25;;;;;;;32.05;20.48;;;0.20;99.90;;;;;;5093389;28;20224;-61
2023/12/05 07:33:52;;;;;;;35.75;22.90;;;0.20;99.90;;;;;;5094211;28;20200;-61
2023/12/05 07:36:18;;;;;;;32.35;19.58;;;0.20;99.90;;;;;;5094208;28;20596;-62
2023/12/05 07:38:46;;;;;;;34.88;20.73;;;0.20;99.90;;;;;;5094784;28;20670;-63
2023/12/05 07:41:20;;;;;;;35.33;21.15;;;0.30;99.90;;;;;;5096177;28;20234;-62
2023/12/05 07:43:49;;;;;;;33.40;21.95;;;0.20;99.90;;;;;;5094869;28;20188;-63
2023/12/05 07:46:16;;;;;;;30.15;20.38;;;0.20;99.90;;;;;;5093732;28;20248;-63
2023/12/05 07:48:42;;;;;;;37.58;20.70;;;0.20;99.90;;;;;;5093493;28;20200;-62
2023/12/05 07:51:15;;;;;;;43.35;21.52;;;0.30;99.90;;;;;;5093937;28;20220;-61
2023/12/05 07:53:41;;;;;;;39.97;22.38;;;0.30;99.90;;;;;;5093944;28;20230;-60
2023/12/05 07:56:10;;;;;;;38.33;22.35;;;0.30;99.90;;;;;;5094692;28;20338;-62
2023/12/05 07:58:37;;;;;;;32.40;20.75;;;0.30;99.90;;;;;;5093200;28;20215;-59
2023/12/05 08:01:05;;;;;;;42.05;23.33;;;0.30;99.90;;;;;;5093051;28;20224;-62
2023/12/05 08:03:33;;;;;;;37.47;21.48;;;0.30;99.90;;;;;;5094150;28;20216;-62
2023/12/05 08:06:01;;;;;;;32.28;21.50;;;0.40;99.90;;;;;;5093270;28;20665;-61
2023/12/05 08:08:30;;;;;;;29.88;20.38;;;0.40;99.90;;;;;;5093579;28;20649;-62
2023/12/05 08:10:57;;;;;;;37.97;22.05;;;0.40;99.90;;;;;;5094273;28;20200;-61
2023/12/05 08:13:25;;;;;;;38.85;21.88;;;0.40;99.90;;;;;;5093633;28;20220;-62
2023/12/05 08:15:52;;;;;;;30.50;20.50;;;0.40;99.90;;;;;;5093578;28;20200;-61
2023/12/05 08:18:19;;;;;;;34.08;22.27;;;0.50;99.90;;;;;;5094003;28;20201;-62
2023/12/05 08:20:46;;;;;;;35.75;21.20;;;0.50;99.90;;;;;;5093641;28;20674;-62
2023/12/05 08:23:13;;;;;;;37.42;21.83;;;0.50;99.90;;;;;;5093117;28;20579;-62
2023/12/05 08:25:39;;;;;;;34.42;21.83;;;0.50;99.90;;;;;;5093539;28;20196;-62
2023/12/05 08:28:06;;;;;;;36.63;20.45;;;0.50;99.90;;;;;;5093347;28;20200;-60
2023/12/05 08:30:35;;;;;;;39.08;21.58;;;0.60;99.90;;;;;;5094054;28;20196;-62
2023/12/05 08:33:02;;;;;;;35.83;21.70;;;0.60;99.90;;;;;;5094484;28;20224;-61
2023/12/05 08:35:29;;;;;;;35.17;21.52;;;0.60;99.90;;;;;;5093943;28;20226;-61
2023/12/05 08:37:56;;;;;;;38.30;23.58;;;0.60;99.90;;;;;;5093940;28;20203;-61
2023/12/05 08:40:23;;;;;;;34.10;20.92;;;0.60;99.90;;;;;;5093221;28;20215;-62
2023/12/05 08:42:49;;;;;;;38.10;21.92;;;0.60;99.90;;;;;;5093836;28;20231;-61
2023/12/05 08:45:18;;;;;;;36.33;23.35;;;0.60;99.90;;;;;;5092635;28;20205;-62
2023/12/05 08:47:46;;;;;;;36.42;22.55;;;0.60;99.90;;;;;;5092862;28;20235;-62
2023/12/05 08:50:13;;;;;;;35.80;24.13;;;0.60;99.90;;;;;;5092347;28;20633;-62
2023/12/05 08:52:41;;;;;;;32.20;21.65;;;0.70;99.90;;;;;;5092814;28;20228;-61
2023/12/05 08:55:08;;;;;;;35.13;22.10;;;0.60;99.90;;;;;;5093104;28;20207;-62
2023/12/05 08:57:34;;;;;;;33.88;22.00;;;0.70;99.90;;;;;;5093721;28;20207;-61
2023/12/05 09:00:04;;;;;;;35.25;20.95;;;0.70;99.90;;;;;;5096583;28;20576;-64
2023/12/05 09:02:31;;;;;;;39.08;23.25;;;0.70;99.90;;;;;;5096352;28;20713;-62
2023/12/05 09:05:01;;;;;;;39.45;21.52;;;0.70;99.90;;;;;;5097046;28;20200;-62
2023/12/05 09:07:27;;;;;;;33.90;22.25;;;0.70;99.90;;;;;;5096354;28;20212;-62
2023/12/05 09:09:54;;;;;;;37.20;20.67;;;0.70;99.90;;;;;;5096256;28;20207;-62
2023/12/05 09:12:22;;;;;;;38.28;22.30;;;0.70;99.90;;;;;;5096128;28;20220;-62
2023/12/05 09:14:48;;;;;;;31.00;20.33;;;0.70;99.90;;;;;;5096190;28;20204;-62
2023/12/05 09:17:17;;;;;;;34.20;21.92;;;0.80;99.90;;;;;;5096166;28;20202;-62
2023/12/05 09:19:44;;;;;;;34.75;20.02;;;0.80;99.90;;;;;;5095846;28;20684;-61
2023/12/05 09:22:12;;;;;;;37.88;21.15;;;0.80;99.90;;;;;;5096009;28;20304;-63
2023/12/05 09:24:39;;;;;;;43.92;25.20;;;0.80;99.90;;;;;;5095613;28;20200;-61
2023/12/05 09:27:06;;;;;;;40.72;23.67;;;0.90;99.90;;;;;;5096572;28;20199;-61
2023/12/05 09:29:33;;;;;;;37.95;21.80;;;0.90;99.90;;;;;;5096080;28;20211;-61
2023/12/05 09:32:00;;;;;;;34.08;20.42;;;1.00;99.90;;;;;;5096094;28;20232;-61
2023/12/05 09:34:27;;;;;;;40.58;22.58;;;1.00;99.90;;;;;;5096233;28;20216;-62
2023/12/05 09:36:53;;;;;;;33.85;20.00;;;1.10;99.90;;;;;;5096102;28;20210;-62
2023/12/05 09:39:21;;;;;;;38.85;21.88;;;1.10;99.90;;;;;;5096188;28;20577;-62
2023/12/05 09:41:53;;;;;;;29.65;20.92;;;1.10;99.90;;;;;;5096519;28;20220;-62
2023/12/05 09:44:22;;;;;;;37.90;22.95;;;1.10;99.90;;;;;;5095799;28;20615;-61
2023/12/05 09:46:52;;;;;;;40.25;23.05;;;1.20;99.90;;;;;;5095825;28;20197;-62
2023/12/05 09:49:22;;;;;;;40.63;23.02;;;1.30;99.90;;;;;;5095283;28;20267;-60
2023/12/05 09:51:49;;;;;;;38.60;21.13;;;1.30;99.90;;;;;;5095820;28;20224;-62
2023/12/05 09:54:16;;;;;;;34.65;21.38;;;1.30;99.90;;;;;;5095533;28;20716;-63
2023/12/05 09:56:45;;;;;;;34.85;21.73;;;1.30;99.90;;;;;;5096402;28;20200;-62
2023/12/05 09:59:13;;;;;;;37.65;21.15;;;1.30;99.90;;;;;;5096998;28;20291;-62
2023/12/05 10:01:41;;;;;;;34.67;20.05;;;1.30;99.90;;;;;;5098594;28;20332;-61
2023/12/05 10:04:11;;;;;;;33.83;22.13;;;1.30;99.90;;;;;;5098087;28;20196;-61
2023/12/05 10:06:39;;;;;;;36.85;21.75;;;1.40;99.90;;;;;;5097707;28;20195;-62
2023/12/05 10:09:08;;;;;;;31.40;21.35;;;1.40;99.90;;;;;;5096860;28;20196;-62
2023/12/05 10:11:35;;;;;;;36.33;22.20;;;1.40;99.90;;;;;;5096520;28;20224;-61
2023/12/05 10:14:04;;;;;;;35.35;21.33;;;1.40;99.90;;;;;;5096564;28;20230;-62
2023/12/05 10:16:32;;;;;;;41.70;21.65;;;1.40;99.90;;;;;;5096324;28;20201;-62
2023/12/05 10:18:59;;;;;;;33.83;20.77;;;1.50;99.90;;;;;;5096616;28;20204;-62
2023/12/05 10:21:26;;;;;;;30.00;20.27;;;1.50;99.90;;;;;;5095214;28;20576;-62
2023/12/05 10:23:53;;;;;;;36.58;20.65;;;1.50;99.90;;;;;;5095721;28;20666;-61
2023/12/05 10:26:20;;;;;;;36.40;21.88;;;1.50;99.90;;;;;;5095086;28;20212;-61
2023/12/05 10:28:51;;;;;;;30.92;20.70;;;1.50;99.90;;;;;;5095184;28;20207;-62
2023/12/05 10:31:19;;;;;;;36.72;21.50;;;1.60;99.90;;;;;;5094769;28;20228;-61
2023/12/05 10:33:48;;;;;;;30.08;18.00;;;1.50;99.90;;;;;;5095455;28;20662;-62
2023/12/05 10:36:15;;;;;;;31.00;20.92;;;1.60;99.90;;;;;;5095588;28;20224;-62
2023/12/05 10:38:44;;;;;;;33.25;20.75;;;1.60;99.90;;;;;;5096274;28;20204;-62
2023/12/05 10:41:11;;;;;;;37.47;20.45;;;1.70;99.90;;;;;;5095125;28;20224;-61
2023/12/05 10:43:38;;;;;;;36.58;20.15;;;1.70;99.90;;;;;;5094914;28;20347;-62
2023/12/05 10:46:05;;;;;;;31.38;19.95;;;1.80;99.90;;;;;;5095599;28;20200;-62
2023/12/05 10:48:33;;;;;;;33.08;18.88;;;1.90;99.90;;;;;;5096076;28;20204;-63
2023/12/05 10:51:02;;;;;;;36.97;20.98;;;1.90;99.90;;;;;;5094477;28;20204;-62
2023/12/05 10:53:29;;;;;;;30.42;19.33;;;2.00;99.90;;;;;;5094791;28;20633;-62
2023/12/05 10:55:56;;;;;;;28.63;19.95;;;2.00;99.90;;;;;;5094534;28;20226;-61
2023/12/05 10:58:24;;;;;;;35.75;22.48;;;2.00;99.90;;;;;;5094215;28;20666;-62
2023/12/05 11:00:51;;;;;;;30.55;19.48;;;2.10;99.90;;;;;;5094132;28;20197;-62
2023/12/05 11:03:20;;;;;;;27.58;20.27;;;2.10;99.90;;;;;;5093926;28;20657;-63
2023/12/05 11:05:48;;;;;;;33.28;19.70;;;2.10;99.90;;;;;;5094069;28;20666;-63
2023/12/05 11:08:15;;;;;;;31.30;19.83;;;2.10;99.90;;;;;;5093584;28;20223;-62
2023/12/05 11:10:42;;;;;;;27.55;18.00;;;2.20;99.90;;;;;;5093999;28;20207;-60
2023/12/05 11:13:13;;;;;;;33.17;20.08;;;2.30;99.90;;;;;;5093914;28;20231;-62
2023/12/05 11:15:42;;;;;;;27.05;17.80;;;2.30;99.90;;;;;;5093699;28;20672;-62
2023/12/05 11:18:21;;;;;;;32.88;19.05;;;2.30;99.90;;;;;;5094042;28;20634;-62
2023/12/05 11:21:01;;;;;;;29.50;18.85;;;2.40;99.90;;;;;;5093543;28;20184;-62
2023/12/05 11:24:03;;;;;;;33.03;20.73;;;2.40;99.90;;;;;;5094042;28;20207;-61
2023/12/05 11:27:08;;;;;;;27.50;18.15;;;2.40;99.90;;;;;;5095503;28;20199;-61
2023/12/05 11:29:55;;;;;;;28.13;19.20;;;2.40;99.90;;;;;;5086719;28;20223;-62
2023/12/05 11:32:34;;;;;;;32.15;19.33;;;2.30;99.90;;;;;;5094134;28;20285;-62
2023/12/05 11:35:11;;;;;;;29.52;17.73;;;2.30;99.90;;;;;;5094198;28;20271;-62
2023/12/05 11:37:58;;;;;;;30.38;18.50;;;2.40;99.90;;;;;;5094588;28;20189;-61
2023/12/05 11:40:25;;;;;;;32.40;22.00;;;2.40;99.90;;;;;;5093711;28;20557;-61
2023/12/05 11:43:08;;;;;;;29.13;17.75;;;2.40;99.90;;;;;;5093232;28;20221;-60
2023/12/05 11:45:39;;;;;;;28.33;17.00;;;2.40;99.90;;;;;;5093099;28;20204;-61
2023/12/05 11:48:06;;;;;;;26.98;19.17;;;2.40;99.90;;;;;;5093778;28;20309;-61
2023/12/05 11:50:47;;;;;;;31.85;19.30;;;2.40;99.90;;;;;;5093565;28;20670;-63
2023/12/05 11:53:19;;;;;;;30.73;19.00;;;2.40;99.90;;;;;;5093116;28;20242;-60
2023/12/05 11:55:47;;;;;;;37.78;20.92;;;2.40;99.90;;;;;;5094226;28;20185;-62
2023/12/05 11:58:26;;;;;;;26.45;17.45;;;2.40;99.90;;;;;;5093562;28;20200;-61
2023/12/05 12:01:01;;;;;;;29.55;17.35;;;2.50;99.90;;;;;;5093303;28;20204;-62
2023/12/05 12:03:28;;;;;;;25.52;16.77;;;2.50;99.90;;;;;;5093598;28;20189;-63
2023/12/05 12:06:02;;;;;;;32.33;18.15;;;2.50;99.90;;;;;;5093196;28;20200;-62
2023/12/05 12:08:31;;;;;;;24.52;17.75;;;2.50;99.90;;;;;;5093504;28;20197;-61
2023/12/05 12:10:58;;;;;;;30.92;19.25;;;2.50;99.90;;;;;;5093065;28;20651;-61
2023/12/05 12:13:26;;;;;;;27.33;16.88;;;2.60;99.90;;;;;;5093046;28;20719;-62
2023/12/05 12:15:53;;;;;;;30.90;17.80;;;2.60;99.90;;;;;;5093429;28;20207;-61
2023/12/05 12:18:25;;;;;;;28.20;17.23;;;2.60;99.90;;;;;;5093356;28;20751;-61
2023/12/05 12:20:52;;;;;;;28.55;19.20;;;2.60;99.90;;;;;;5094334;28;20180;-62
2023/12/05 12:23:19;;;;;;;26.40;18.20;;;2.60;99.90;;;;;;5096065;28;20200;-61
2023/12/05 12:25:53;;;;;;;30.30;18.05;;;2.70;99.90;;;;;;5097941;28;20202;-62
2023/12/05 12:28:28;;;;;;;30.33;17.08;;;2.70;99.90;;;;;;5097540;28;20252;-62
2023/12/05 12:30:55;;;;;;;28.02;17.38;;;2.70;99.90;;;;;;5095009;28;20207;-62
2023/12/05 12:33:28;;;;;;;23.67;18.15;;;2.70;99.90;;;;;;5096246;28;20211;-62
2023/12/05 12:35:55;;;;;;;29.58;19.58;;;2.60;99.90;;;;;;5098432;28;20218;-62
2023/12/05 12:38:23;;;;;;;26.20;17.08;;;2.60;99.90;;;;;;5098849;28;20681;-62
2023/12/05 12:40:52;;;;;;;30.40;19.50;;;2.60;99.90;;;;;;5097629;28;20204;-62
2023/12/05 12:43:18;;;;;;;28.35;17.80;;;2.60;99.90;;;;;;5096871;28;20695;-61
2023/12/05 12:45:45;;;;;;;27.25;18.23;;;2.70;99.90;;;;;;5098855;28;20299;-61